Time;durP1;ratioP1;P1;durP2;ratioP2;P2;SDS_P1;SDS_P2;PMS_P1;PMS_P2;Temp;Humidity;BMP_temperature;BMP_pressure;BME280_temperature;BME280_humidity;BME280_pressure;Samples;Min_cycle;Max_cycle;Signal;HPM_P1;HPM_P2
2023/03/30 00:02:11;;;;;;;;;;;11.00;66.90;;;;;;5965616;23;19917;-75
2023/03/30 00:04:37;;;;;;;;;;;11.00;66.90;;;;;;5960277;23;19909;-76
2023/03/30 00:07:04;;;;;;;;;;;11.00;67.00;;;;;;5963602;23;19912;-75
2023/03/30 00:09:31;;;;;;;;;;;10.90;67.00;;;;;;5958713;23;19909;-76
2023/03/30 00:12:02;;;;;;;;;;;10.80;67.10;;;;;;5963251;23;19913;-76
2023/03/30 00:14:28;;;;;;;;;;;10.80;67.10;;;;;;5960563;23;19970;-77
2023/03/30 00:16:54;;;;;;;;;;;10.70;67.10;;;;;;5985620;23;19913;-76
2023/03/30 00:19:20;;;;;;;;;;;10.70;67.20;;;;;;5988325;23;20011;-76
2023/03/30 00:21:46;;;;;;;;;;;10.70;67.30;;;;;;5961982;23;20635;-76
2023/03/30 00:24:11;;;;;;;;;;;10.70;67.30;;;;;;5961272;23;19909;-77
2023/03/30 00:26:37;;;;;;;;;;;10.70;68.10;;;;;;5937909;23;21055;-75
2023/03/30 00:29:02;;;;;;;;;;;10.60;67.30;;;;;;5963484;23;19913;-76
2023/03/30 00:31:28;;;;;;;;;;;10.60;67.30;;;;;;5963055;23;19936;-76
2023/03/30 00:33:53;;;;;;;;;;;10.60;67.30;;;;;;5971470;23;19913;-76
2023/03/30 00:36:18;;;;;;;;;;;10.60;67.40;;;;;;5962065;23;19937;-76
2023/03/30 00:38:44;;;;;;;;;;;10.60;67.40;;;;;;5962030;23;19972;-77
2023/03/30 00:41:10;;;;;;;;;;;10.60;67.50;;;;;;5963494;23;19920;-76
2023/03/30 00:43:54;;;;;;;;;;;10.50;67.40;;;;;;5963973;23;20434;-76
2023/03/30 00:46:22;;;;;;;;;;;10.50;67.50;;;;;;5943283;23;20033;-76
2023/03/30 00:48:47;;;;;;;;;;;10.50;67.50;;;;;;5962709;23;20017;-75
2023/03/30 00:51:13;;;;;;;;;;;10.50;67.50;;;;;;5959061;23;19989;-76
2023/03/30 00:53:43;;;;;;;;;;;10.40;67.50;;;;;;5964116;23;19993;-76
2023/03/30 00:56:09;;;;;;;;;;;10.40;67.60;;;;;;5959267;23;20000;-76
2023/03/30 00:58:35;;;;;;;;;;;10.40;67.60;;;;;;5961607;23;20296;-75
2023/03/30 01:01:01;;;;;;;;;;;10.40;67.60;;;;;;5961925;23;19913;-76
2023/03/30 01:03:36;;;;;;;;;;;10.40;67.70;;;;;;5960625;23;19909;-75
2023/03/30 01:06:03;;;;;;;;;;;10.40;67.60;;;;;;5960491;23;19913;-76
2023/03/30 01:08:31;;;;;;;;;;;10.40;67.70;;;;;;5963137;23;19991;-76
2023/03/30 01:10:57;;;;;;;;;;;10.30;67.60;;;;;;5971079;23;20582;-76
2023/03/30 01:13:22;;;;;;;;;;;10.30;67.60;;;;;;5943366;23;19976;-76
2023/03/30 01:15:57;;;;;;;;;;;10.30;67.70;;;;;;5963977;23;19967;-76
2023/03/30 01:18:29;;;;;;;;;;;10.30;67.70;;;;;;5958823;23;19975;-77
2023/03/30 01:21:14;;;;;;;;;;;10.30;67.70;;;;;;5983019;23;19917;-77
2023/03/30 01:23:49;;;;;;;;;;;10.30;67.80;;;;;;5962553;23;19909;-78
2023/03/30 01:26:15;;;;;;;;;;;10.20;67.70;;;;;;5967124;23;19920;-78
2023/03/30 01:28:56;;;;;;;;;;;10.20;67.70;;;;;;5961502;23;19909;-78
2023/03/30 01:31:24;;;;;;;;;;;10.20;67.80;;;;;;5959883;23;19924;-75
2023/03/30 01:33:53;;;;;;;;;;;10.20;68.60;;;;;;5961255;23;20399;-78
2023/03/30 01:36:21;;;;;;;;;;;10.20;67.80;;;;;;5962380;23;19936;-78
2023/03/30 01:38:52;;;;;;;;;;;10.10;67.80;;;;;;5958863;23;20039;-79
2023/03/30 01:41:28;;;;;;;;;;;10.10;67.80;;;;;;5962332;23;20192;-76
2023/03/30 01:44:12;;;;;;;;;;;10.10;67.80;;;;;;5955590;23;19913;-77
2023/03/30 01:46:40;;;;;;;;;;;10.10;67.90;;;;;;5935299;23;19925;-79
2023/03/30 01:49:11;;;;;;;;;;;10.10;67.90;;;;;;5982247;23;19916;-78
2023/03/30 01:51:39;;;;;;;;;;;10.00;67.90;;;;;;5961595;23;19910;-78
2023/03/30 01:54:06;;;;;;;;;;;10.00;67.90;;;;;;5961814;23;19919;-78
2023/03/30 01:56:34;;;;;;;;;;;10.00;68.00;;;;;;5968758;23;19921;-79
2023/03/30 01:59:01;;;;;;;;;;;10.00;68.00;;;;;;5961923;23;19913;-76
2023/03/30 02:01:26;;;;;;;;;;;10.00;68.10;;;;;;5962396;23;19968;-76
2023/03/30 02:03:53;;;;;;;;;;;10.00;68.10;;;;;;5961280;23;19918;-77
2023/03/30 02:06:28;;;;;;;;;;;9.90;68.00;;;;;;5959243;23;19909;-76
2023/03/30 02:08:54;;;;;;;;;;;9.90;68.00;;;;;;5983820;23;21311;-78
2023/03/30 02:11:21;;;;;;;;;;;9.90;68.10;;;;;;5983182;23;19948;-75
2023/03/30 02:13:49;;;;;;;;;;;9.90;68.10;;;;;;5960315;23;19914;-77
2023/03/30 02:16:16;;;;;;;;;;;9.80;68.90;;;;;;5982120;23;19913;-76
2023/03/30 02:18:41;;;;;;;;;;;9.80;68.10;;;;;;5960644;23;19916;-76
2023/03/30 02:21:07;;;;;;;;;;;9.80;68.20;;;;;;5962843;23;19917;-78
2023/03/30 02:23:37;;;;;;;;;;;9.80;68.20;;;;;;5963552;23;20916;-77
2023/03/30 02:26:03;;;;;;;;;;;9.80;68.30;;;;;;5951985;23;19919;-77
2023/03/30 02:28:29;;;;;;;;;;;9.80;68.30;;;;;;5953575;23;19909;-77
2023/03/30 02:30:54;;;;;;;;;;;9.80;68.30;;;;;;5963272;23;19913;-78
2023/03/30 02:33:33;;;;;;;;;;;9.80;68.30;;;;;;5984419;23;19913;-79
2023/03/30 02:36:05;;;;;;;;;;;9.70;68.30;;;;;;5962826;23;19909;-80
2023/03/30 02:38:37;;;;;;;;;;;9.70;68.30;;;;;;5985257;23;19916;-78
2023/03/30 02:41:08;;;;;;;;;;;9.70;68.30;;;;;;5963967;23;19959;-77
2023/03/30 02:43:36;;;;;;;;;;;9.70;68.40;;;;;;5990953;23;19909;-76
2023/03/30 02:46:08;;;;;;;;;;;9.70;68.40;;;;;;5964705;23;19937;-77
2023/03/30 02:48:38;;;;;;;;;;;9.70;68.50;;;;;;5966781;23;19941;-77
2023/03/30 02:51:18;;;;;;;;;;;9.70;68.40;;;;;;5966085;23;19909;-77
2023/03/30 02:53:54;;;;;;;;;;;9.70;68.40;;;;;;5963579;23;19959;-78
2023/03/30 02:56:20;;;;;;;;;;;9.70;68.40;;;;;;5959604;23;19916;-76
2023/03/30 02:58:53;;;;;;;;;;;9.70;68.40;;;;;;5965553;23;19920;-78
2023/03/30 03:01:35;;;;;;;;;;;9.60;68.40;;;;;;5964787;23;19914;-77
2023/03/30 03:04:02;;;;;;;;;;;9.70;68.50;;;;;;5945618;23;20506;-78
2023/03/30 03:06:27;;;;;;;;;;;9.70;68.50;;;;;;5989465;23;20364;-78
2023/03/30 03:08:53;;;;;;;;;;;9.60;68.40;;;;;;5964524;23;19917;-78
2023/03/30 03:11:19;;;;;;;;;;;9.60;68.50;;;;;;5983457;23;19914;-79
2023/03/30 03:13:44;;;;;;;;;;;9.70;68.50;;;;;;5966418;23;19910;-77
2023/03/30 03:16:10;;;;;;;;;;;9.60;68.50;;;;;;5964371;23;19913;-79
2023/03/30 03:18:38;;;;;;;;;;;9.60;68.50;;;;;;5963490;23;20021;-77
2023/03/30 03:21:04;;;;;;;;;;;9.60;68.50;;;;;;5965061;23;19913;-78
2023/03/30 03:23:30;;;;;;;;;;;9.60;68.50;;;;;;5968125;23;20264;-78
2023/03/30 03:25:55;;;;;;;;;;;9.60;68.50;;;;;;5967009;23;19909;-77
2023/03/30 03:28:21;;;;;;;;;;;9.60;68.50;;;;;;5964499;23;19909;-77
2023/03/30 03:30:47;;;;;;;;;;;9.60;68.50;;;;;;5963872;23;19909;-77
2023/03/30 03:33:13;;;;;;;;;;;9.60;68.60;;;;;;5971322;23;19917;-77
2023/03/30 03:35:39;;;;;;;;;;;9.60;68.60;;;;;;5959369;23;19909;-78
2023/03/30 03:38:05;;;;;;;;;;;9.60;68.60;;;;;;5969206;23;19992;-78
2023/03/30 03:40:31;;;;;;;;;;;9.60;68.70;;;;;;5964276;23;19984;-78
2023/03/30 03:42:56;;;;;;;;;;;9.60;69.40;;;;;;5964050;23;20581;-77
2023/03/30 03:45:22;;;;;;;;;;;9.60;68.60;;;;;;5987280;23;19935;-78
2023/03/30 03:47:49;;;;;;;;;;;9.60;68.60;;;;;;5965365;23;19928;-77
2023/03/30 03:50:14;;;;;;;;;;;9.60;68.70;;;;;;5964345;23;20304;-79
2023/03/30 03:52:40;;;;;;;;;;;9.60;68.70;;;;;;5971120;23;19924;-77
2023/03/30 03:55:06;;;;;;;;;;;9.60;68.70;;;;;;5963193;23;19948;-77
2023/03/30 03:57:32;;;;;;;;;;;9.60;68.70;;;;;;5965053;23;19913;-78
2023/03/30 03:59:58;;;;;;;;;;;9.60;68.70;;;;;;5965134;23;19924;-77
2023/03/30 04:02:24;;;;;;;;;;;9.60;68.70;;;;;;5973298;23;19940;-77
2023/03/30 04:04:50;;;;;;;;;;;9.60;68.80;;;;;;5972079;23;19917;-78
2023/03/30 04:07:15;;;;;;;;;;;9.60;68.80;;;;;;5962378;23;20503;-77
2023/03/30 04:09:41;;;;;;;;;;;9.60;68.80;;;;;;5983823;23;19940;-77
2023/03/30 04:12:06;;;;;;;;;;;9.50;68.70;;;;;;5967525;23;20787;-77
2023/03/30 04:14:33;;;;;;;;;;;9.60;68.80;;;;;;5964697;23;19909;-78
2023/03/30 04:16:59;;;;;;;;;;;9.60;68.90;;;;;;5965209;23;19929;-79
2023/03/30 04:19:26;;;;;;;;;;;9.60;68.80;;;;;;5964690;23;19920;-77
2023/03/30 04:21:54;;;;;;;;;;;9.60;68.90;;;;;;5952916;23;19921;-78
2023/03/30 04:24:21;;;;;;;;;;;9.60;68.90;;;;;;5984092;23;19920;-77
2023/03/30 04:26:47;;;;;;;;;;;9.60;68.90;;;;;;5961206;23;19973;-78
2023/03/30 04:29:15;;;;;;;;;;;9.60;68.90;;;;;;5962323;23;19989;-78
2023/03/30 04:31:45;;;;;;;;;;;9.60;68.90;;;;;;5962924;23;19941;-78
2023/03/30 04:34:14;;;;;;;;;;;9.60;68.90;;;;;;5960388;23;19940;-78
2023/03/30 04:36:42;;;;;;;;;;;9.60;68.90;;;;;;5965134;23;19988;-79
2023/03/30 04:39:09;;;;;;;;;;;9.60;68.90;;;;;;5957618;23;19909;-78
2023/03/30 04:41:35;;;;;;;;;;;9.60;68.90;;;;;;5956429;23;20019;-77
2023/03/30 04:44:04;;;;;;;;;;;9.60;68.90;;;;;;5961340;23;20399;-77
2023/03/30 04:46:29;;;;;;;;;;;9.60;68.90;;;;;;5959763;23;19917;-78
2023/03/30 04:48:55;;;;;;;;;;;9.60;68.90;;;;;;5963006;23;19925;-78
2023/03/30 04:51:21;;;;;;;;;;;9.60;68.90;;;;;;5985804;23;19952;-78
2023/03/30 04:53:46;;;;;;;;;;;9.60;68.90;;;;;;5954192;23;19913;-79
2023/03/30 04:56:11;;;;;;;;;;;9.60;68.90;;;;;;5960954;23;19932;-78
2023/03/30 04:58:37;;;;;;;;;;;9.60;68.90;;;;;;5962665;23;19917;-78
2023/03/30 05:01:02;;;;;;;;;;;9.60;69.00;;;;;;5961100;23;20387;-79
2023/03/30 05:03:28;;;;;;;;;;;9.60;69.00;;;;;;5964420;23;19909;-78
2023/03/30 05:05:53;;;;;;;;;;;9.60;69.00;;;;;;5971536;23;19919;-77
2023/03/30 05:08:19;;;;;;;;;;;9.60;69.00;;;;;;5968342;23;19914;-79
2023/03/30 05:10:45;;;;;;;;;;;9.60;69.00;;;;;;5986790;23;20386;-79
2023/03/30 05:13:10;;;;;;;;;;;9.60;69.00;;;;;;5965089;23;19906;-78
2023/03/30 05:15:35;;;;;;;;;;;9.60;69.00;;;;;;5963129;23;19909;-78
2023/03/30 05:18:01;;;;;;;;;;;9.60;69.00;;;;;;5963113;23;19909;-79
2023/03/30 05:20:26;;;;;;;;;;;9.60;69.00;;;;;;5988166;23;19956;-78
2023/03/30 05:22:52;;;;;;;;;;;9.60;69.10;;;;;;5962263;23;19910;-79
2023/03/30 05:25:18;;;;;;;;;;;9.60;69.10;;;;;;5965321;23;19948;-78
2023/03/30 05:27:43;;;;;;;;;;;9.60;69.00;;;;;;5986813;23;19917;-79
2023/03/30 05:30:09;;;;;;;;;;;9.60;69.10;;;;;;5966036;23;19909;-79
2023/03/30 05:32:35;;;;;;;;;;;9.60;69.10;;;;;;5964735;23;19968;-78
2023/03/30 05:35:00;;;;;;;;;;;9.60;69.10;;;;;;5959306;23;19929;-78
2023/03/30 05:37:25;;;;;;;;;;;9.60;69.10;;;;;;5949768;23;20284;-78
2023/03/30 05:39:51;;;;;;;;;;;9.60;69.10;;;;;;5933298;24;19913;-78
2023/03/30 05:42:16;;;;;;;;;;;9.60;69.10;;;;;;5960772;23;19920;-78
2023/03/30 05:44:42;;;;;;;;;;;9.60;69.20;;;;;;5986803;23;19955;-77
2023/03/30 05:47:07;;;;;;;;;;;9.60;69.20;;;;;;5966046;23;19917;-77
2023/03/30 05:49:33;;;;;;;;;;;9.60;69.20;;;;;;5966982;23;19909;-78
2023/03/30 05:51:58;;;;;;;;;;;9.60;69.20;;;;;;5966907;23;20732;-80
2023/03/30 05:54:25;;;;;;;;;;;9.60;69.20;;;;;;5968855;23;19929;-78
2023/03/30 05:56:51;;;;;;;;;;;9.60;69.20;;;;;;5984492;23;19913;-78
2023/03/30 05:59:16;;;;;;;;;;;9.60;69.20;;;;;;5988068;23;19932;-78
2023/03/30 06:01:42;;;;;;;;;;;9.60;69.20;;;;;;5959860;23;19987;-78
2023/03/30 06:04:07;;;;;;;;;;;9.60;69.20;;;;;;5964096;23;19909;-79
2023/03/30 06:06:33;;;;;;;;;;;9.60;69.20;;;;;;5965609;23;19932;-78
2023/03/30 06:08:58;;;;;;;;;;;9.70;69.30;;;;;;5962233;23;19909;-78
2023/03/30 06:11:24;;;;;;;;;;;9.70;69.30;;;;;;5988712;23;19909;-79
2023/03/30 06:13:49;;;;;;;;;;;9.70;69.30;;;;;;5962724;23;19913;-77
2023/03/30 06:16:15;;;;;;;;;;;9.70;69.30;;;;;;5965421;23;20423;-78
2023/03/30 06:18:41;;;;;;;;;;;9.70;69.30;;;;;;5964575;23;19947;-78
2023/03/30 06:21:07;;;;;;;;;;;9.70;69.30;;;;;;5964117;23;19920;-77
2023/03/30 06:23:33;;;;;;;;;;;9.70;69.30;;;;;;5963433;23;20473;-79
2023/03/30 06:25:58;;;;;;;;;;;9.70;69.30;;;;;;5964698;23;20275;-78
2023/03/30 06:28:24;;;;;;;;;;;9.70;69.30;;;;;;5965286;23;19909;-77
2023/03/30 06:30:49;;;;;;;;;;;9.70;69.40;;;;;;5990159;23;19916;-77
2023/03/30 06:33:15;;;;;;;;;;;9.70;69.40;;;;;;5968355;23;19979;-76
2023/03/30 06:35:45;;;;;;;;;;;9.70;69.40;;;;;;5962524;23;20283;-78
2023/03/30 06:38:10;;;;;;;;;;;9.70;69.40;;;;;;5967736;23;19910;-77
2023/03/30 06:40:35;;;;;;;;;;;9.70;69.40;;;;;;5966880;23;19913;-76
2023/03/30 06:43:01;;;;;;;;;;;9.70;69.40;;;;;;5966268;23;20402;-77
2023/03/30 06:45:26;;;;;;;;;;;9.70;69.40;;;;;;5968465;23;19920;-76
2023/03/30 06:47:52;;;;;;;;;;;9.80;69.50;;;;;;5989702;23;19917;-77
2023/03/30 06:50:18;;;;;;;;;;;9.80;69.50;;;;;;5967948;23;19909;-76
2023/03/30 06:52:43;;;;;;;;;;;9.80;69.50;;;;;;5975426;23;19906;-77
2023/03/30 06:55:09;;;;;;;;;;;9.80;69.50;;;;;;5962668;23;20364;-77
2023/03/30 06:57:34;;;;;;;;;;;9.80;69.50;;;;;;5967503;23;19909;-75
2023/03/30 07:00:00;;;;;;;;;;;9.80;69.50;;;;;;5966993;23;20603;-76
2023/03/30 07:02:26;;;;;;;;;;;9.80;69.60;;;;;;5968467;23;19913;-76
2023/03/30 07:04:51;;;;;;;;;;;9.80;69.60;;;;;;5990828;23;19909;-75
2023/03/30 07:07:17;;;;;;;;;;;9.80;69.60;;;;;;5969353;23;19963;-77
2023/03/30 07:09:42;;;;;;;;;;;9.80;69.60;;;;;;5971057;23;20021;-77
2023/03/30 07:12:08;;;;;;;;;;;9.90;69.70;;;;;;5971271;23;19988;-76
2023/03/30 07:14:33;;;;;;;;;;;10.00;69.90;;;;;;5957211;23;19913;-76
2023/03/30 07:16:59;;;;;;;;;;;10.10;69.90;;;;;;5992161;23;19905;-77
2023/03/30 07:19:24;;;;;;;;;;;10.20;69.80;;;;;;5967161;23;19910;-77
2023/03/30 07:21:50;;;;;;;;;;;10.40;69.80;;;;;;5968954;23;19945;-77
2023/03/30 07:24:15;;;;;;;;;;;10.50;69.80;;;;;;5967531;23;20728;-77
2023/03/30 07:26:41;;;;;;;;;;;10.60;69.80;;;;;;5966389;23;19928;-77
2023/03/30 07:29:06;;;;;;;;;;;10.60;69.70;;;;;;5968863;23;19913;-76
2023/03/30 07:31:32;;;;;;;;;;;10.70;69.80;;;;;;5968411;23;19920;-76
2023/03/30 07:33:57;;;;;;;;;;;10.80;69.70;;;;;;5966990;23;19981;-77
2023/03/30 07:36:23;;;;;;;;;;;10.90;69.60;;;;;;5993484;23;19925;-78
2023/03/30 07:38:48;;;;;;;;;;;10.90;69.60;;;;;;5989499;23;19909;-76
2023/03/30 07:41:14;;;;;;;;;;;10.90;69.60;;;;;;5969287;23;19913;-77
2023/03/30 07:43:40;;;;;;;;;;;11.00;69.60;;;;;;5967314;23;19984;-77
2023/03/30 07:46:05;;;;;;;;;;;11.10;69.60;;;;;;5969106;23;19927;-77
2023/03/30 07:48:31;;;;;;;;;;;11.10;69.70;;;;;;5992549;23;20356;-77
2023/03/30 07:51:00;;;;;;;;;;;11.10;69.70;;;;;;5966715;23;19916;-77
2023/03/30 07:53:25;;;;;;;;;;;11.20;69.70;;;;;;5985738;23;20510;-77
2023/03/30 07:55:51;;;;;;;;;;;11.20;69.60;;;;;;5977950;23;19916;-78
2023/03/30 07:58:17;;;;;;;;;;;11.30;69.70;;;;;;5967398;23;19906;-77
2023/03/30 08:00:43;;;;;;;;;;;11.30;69.70;;;;;;5967127;23;20195;-78
2023/03/30 08:03:10;;;;;;;;;;;11.40;69.70;;;;;;5968348;23;19913;-77
2023/03/30 08:05:36;;;;;;;;;;;11.40;69.70;;;;;;5967650;23;19913;-76
2023/03/30 08:08:01;;;;;;;;;;;11.40;69.70;;;;;;5968101;23;20576;-77
2023/03/30 08:10:27;;;;;;;;;;;11.50;69.80;;;;;;5968090;23;19914;-78
2023/03/30 08:12:52;;;;;;;;;;;11.50;69.70;;;;;;5965607;23;20564;-78
2023/03/30 08:15:18;;;;;;;;;;;11.60;69.80;;;;;;5967268;23;20601;-77
2023/03/30 08:17:44;;;;;;;;;;;11.60;69.70;;;;;;5966094;23;19944;-77
2023/03/30 08:20:10;;;;;;;;;;;11.70;69.80;;;;;;5966128;23;19913;-77
2023/03/30 08:22:35;;;;;;;;;;;11.70;70.10;;;;;;5964866;23;20395;-78
2023/03/30 08:25:00;;;;;;;;;;;11.70;69.70;;;;;;5967304;23;19963;-78
2023/03/30 08:27:26;;;;;;;;;;;11.80;69.80;;;;;;5975250;23;20558;-77
2023/03/30 08:29:53;;;;;;;;;;;11.80;69.70;;;;;;5966807;23;19971;-78
2023/03/30 08:32:18;;;;;;;;;;;11.90;69.90;;;;;;5965263;23;20590;-77
2023/03/30 08:34:44;;;;;;;;;;;11.90;69.90;;;;;;5984988;23;20000;-78
2023/03/30 08:37:11;;;;;;;;;;;11.90;69.80;;;;;;5985444;23;19909;-78
2023/03/30 08:39:37;;;;;;;;;;;12.00;69.90;;;;;;5963316;23;19920;-78
2023/03/30 08:42:21;;;;;;;;;;;12.10;69.90;;;;;;5967380;23;19971;-79
2023/03/30 08:44:47;;;;;;;;;;;12.10;69.90;;;;;;5963839;23;19939;-79
2023/03/30 08:47:14;;;;;;;;;;;12.20;69.80;;;;;;5964869;23;20583;-79
2023/03/30 08:49:41;;;;;;;;;;;12.30;69.80;;;;;;5982558;23;19984;-79
2023/03/30 08:52:08;;;;;;;;;;;12.30;69.80;;;;;;5982543;23;19936;-79
2023/03/30 08:54:33;;;;;;;;;;;12.40;69.80;;;;;;5984805;23;19917;-78
2023/03/30 08:57:10;;;;;;;;;;;12.40;69.70;;;;;;5970434;23;19913;-78
2023/03/30 08:59:42;;;;;;;;;;;12.50;69.70;;;;;;5961115;23;19992;-78
2023/03/30 09:02:20;;;;;;;;;;;12.50;69.70;;;;;;5963516;23;19909;-78
2023/03/30 09:05:00;;;;;;;;;;;12.60;69.70;;;;;;5941572;23;19920;-78
2023/03/30 09:07:31;;;;;;;;;;;12.70;69.70;;;;;;5947344;23;19917;-78
2023/03/30 09:09:57;;;;;;;;;;;12.80;69.70;;;;;;5953425;23;19909;-77
2023/03/30 09:12:30;;;;;;;;;;;12.90;69.70;;;;;;5962656;23;20408;-79
2023/03/30 09:15:14;;;;;;;;;;;12.90;69.60;;;;;;5984192;23;19917;-78
2023/03/30 09:17:41;;;;;;;;;;;13.00;69.60;;;;;;5973854;23;19915;-78
2023/03/30 09:20:14;;;;;;;;;;;13.10;69.60;;;;;;5963158;23;20421;-77
2023/03/30 09:22:41;;;;;;;;;;;13.20;69.50;;;;;;5962769;23;20296;-79
2023/03/30 09:25:14;;;;;;;;;;;13.30;69.40;;;;;;5943271;23;19910;-78
2023/03/30 09:28:01;;;;;;;;;;;13.40;69.40;;;;;;5936864;23;20345;-79
2023/03/30 09:30:42;;;;;;;;;;;13.40;69.30;;;;;;5933061;24;19913;-78
2023/03/30 09:33:10;;;;;;;;;;;13.50;69.30;;;;;;5934247;23;19910;-78
2023/03/30 09:35:43;;;;;;;;;;;13.60;69.40;;;;;;5934783;23;19909;-78
2023/03/30 09:38:12;;;;;;;;;;;13.70;69.40;;;;;;5956857;23;20331;-78
2023/03/30 09:40:53;;;;;;;;;;;13.70;69.20;;;;;;5960089;23;20460;-78
2023/03/30 09:43:21;;;;;;;;;;;13.70;70.00;;;;;;5961484;23;20031;-77
2023/03/30 09:45:47;;;;;;;;;;;13.80;69.20;;;;;;5958601;23;19905;-78
2023/03/30 09:48:12;;;;;;;;;;;13.80;69.30;;;;;;5965590;23;19909;-78
2023/03/30 09:50:47;;;;;;;;;;;13.80;69.20;;;;;;5985141;23;19913;-77
2023/03/30 09:53:25;;;;;;;;;;;13.80;69.50;;;;;;5961951;23;19931;-78
2023/03/30 09:56:00;;;;;;;;;;;13.90;69.30;;;;;;5961659;23;20508;-78
2023/03/30 09:58:27;;;;;;;;;;;13.90;69.30;;;;;;5963579;23;19937;-77
2023/03/30 10:01:11;;;;;;;;;;;13.90;69.30;;;;;;5962421;23;19921;-78
2023/03/30 10:03:37;;;;;;;;;;;14.00;69.30;;;;;;5962900;23;20478;-77
2023/03/30 10:06:06;;;;;;;;;;;14.00;69.20;;;;;;5960707;23;19906;-77
2023/03/30 10:08:31;;;;;;;;;;;14.10;69.20;;;;;;5963535;23;19943;-78
2023/03/30 10:10:57;;;;;;;;;;;14.10;69.20;;;;;;5985631;23;19909;-78
2023/03/30 10:13:26;;;;;;;;;;;14.10;69.20;;;;;;5964148;23;20428;-79
2023/03/30 10:15:51;;;;;;;;;;;14.20;69.20;;;;;;5986039;23;19916;-77
2023/03/30 10:18:17;;;;;;;;;;;14.20;69.20;;;;;;5963816;23;19926;-78
2023/03/30 10:20:45;;;;;;;;;;;14.20;69.20;;;;;;5965062;23;19991;-78
2023/03/30 10:23:14;;;;;;;;;;;14.30;69.20;;;;;;5964279;23;19909;-79
2023/03/30 10:25:40;;;;;;;;;;;14.30;69.20;;;;;;5961235;23;19917;-79
2023/03/30 10:28:20;;;;;;;;;;;14.40;69.30;;;;;;5960876;23;19909;-77
2023/03/30 10:30:53;;;;;;;;;;;14.40;69.80;;;;;;5964877;23;19909;-78
2023/03/30 10:33:18;;;;;;;;;;;14.50;69.20;;;;;;5976249;23;19913;-77
2023/03/30 10:35:44;;;;;;;;;;;14.60;69.20;;;;;;5961832;23;19920;-78
2023/03/30 10:38:09;;;;;;;;;;;14.60;69.10;;;;;;5962943;23;19917;-77
2023/03/30 10:40:36;;;;;;;;;;;14.70;69.10;;;;;;5948609;23;20826;-77
2023/03/30 10:43:02;;;;;;;;;;;14.80;69.00;;;;;;5960025;23;20000;-79
2023/03/30 10:45:30;;;;;;;;;;;14.90;69.00;;;;;;5964892;23;19937;-78
2023/03/30 10:48:15;;;;;;;;;;;14.90;69.00;;;;;;5983683;23;19917;-78
2023/03/30 10:50:45;;;;;;;;;;;15.10;68.90;;;;;;5964455;23;19913;-79
2023/03/30 10:53:29;;;;;;;;;;;15.20;68.90;;;;;;5963247;23;19909;-79
2023/03/30 10:55:57;;;;;;;;;;;15.30;68.80;;;;;;5987395;23;19917;-78
2023/03/30 10:58:22;;;;;;;;;;;15.40;68.80;;;;;;5964591;23;20026;-79
2023/03/30 11:00:48;;;;;;;;;;;15.50;68.70;;;;;;5963124;23;19949;-79
2023/03/30 11:03:15;;;;;;;;;;;15.60;68.70;;;;;;5965074;23;19937;-76
2023/03/30 11:05:42;;;;;;;;;;;15.80;68.60;;;;;;5989278;23;19909;-79
2023/03/30 11:08:10;;;;;;;;;;;16.00;68.50;;;;;;5985844;23;19940;-79
2023/03/30 11:10:37;;;;;;;;;;;16.10;68.30;;;;;;5960765;23;20000;-76
2023/03/30 11:13:05;;;;;;;;;;;16.30;68.30;;;;;;5963600;23;19909;-78
2023/03/30 11:15:37;;;;;;;;;;;16.50;68.20;;;;;;5960713;23;19909;-79
2023/03/30 11:18:20;;;;;;;;;;;16.60;67.90;;;;;;5963155;23;19908;-78
2023/03/30 11:20:51;;;;;;;;;;;16.70;67.80;;;;;;5971200;23;20365;-78
2023/03/30 11:23:18;;;;;;;;;;;16.70;67.70;;;;;;5954684;23;20659;-78
2023/03/30 11:25:52;;;;;;;;;;;16.70;67.60;;;;;;5984536;23;20007;-76
2023/03/30 11:28:20;;;;;;;;;;;16.70;67.70;;;;;;5963561;23;20520;-78
2023/03/30 11:30:45;;;;;;;;;;;16.70;67.60;;;;;;5984587;23;19936;-79
2023/03/30 11:33:18;;;;;;;;;;;16.70;67.60;;;;;;5965358;23;19968;-78
2023/03/30 11:35:46;;;;;;;;;;;16.70;67.60;;;;;;5964077;23;19988;-78
2023/03/30 11:38:38;;;;;;;;;;;16.70;67.60;;;;;;5952281;23;19987;-78
2023/03/30 11:41:05;;;;;;;;;;;16.80;67.60;;;;;;5958635;23;19917;-78
2023/03/30 11:43:30;;;;;;;;;;;16.80;67.60;;;;;;5963230;23;20366;-78
2023/03/30 11:46:05;;;;;;;;;;;16.80;67.50;;;;;;5953290;23;20000;-78
2023/03/30 11:48:59;;;;;;;;;;;16.80;67.50;;;;;;5965048;23;19917;-79
2023/03/30 11:51:34;;;;;;;;;;;16.80;67.40;;;;;;5969423;23;20343;-77
2023/03/30 11:54:12;;;;;;;;;;;16.90;67.40;;;;;;5949485;23;19910;-77
2023/03/30 11:56:39;;;;;;;;;;;17.00;67.40;;;;;;5943315;23;19917;-78
2023/03/30 11:59:05;;;;;;;;;;;17.10;67.20;;;;;;5961656;23;19909;-78
2023/03/30 12:01:42;;;;;;;;;;;17.20;67.10;;;;;;5987771;23;19922;-79
2023/03/30 12:04:14;;;;;;;;;;;17.30;66.90;;;;;;5964978;23;19991;-81
2023/03/30 12:06:40;;;;;;;;;;;17.40;66.80;;;;;;5946740;23;19981;-78
2023/03/30 12:09:15;;;;;;;;;;;17.50;66.70;;;;;;5967606;23;19972;-79
2023/03/30 12:11:54;;;;;;;;;;;17.60;67.50;;;;;;5936943;23;19913;-78
2023/03/30 12:14:31;;;;;;;;;;;17.70;66.50;;;;;;5982513;23;19913;-78
2023/03/30 12:16:58;;;;;;;;;;;17.80;66.40;;;;;;5936817;23;19921;-78
2023/03/30 12:19:26;;;;;;;;;;;17.90;66.20;;;;;;5949283;23;19913;-78
2023/03/30 12:21:53;;;;;;;;;;;18.00;66.20;;;;;;5979688;23;19920;-79
2023/03/30 12:24:21;;;;;;;;;;;18.10;66.10;;;;;;5927610;23;19971;-79
2023/03/30 12:26:47;;;;;;;;;;;18.30;66.00;;;;;;5938498;23;19988;-79
2023/03/30 12:29:14;;;;;;;;;;;18.40;65.80;;;;;;5940896;23;19944;-81
2023/03/30 12:31:52;;;;;;;;;;;18.60;65.60;;;;;;5949983;23;19909;-78
2023/03/30 12:34:17;;;;;;;;;;;18.70;65.60;;;;;;5938899;23;20012;-79
2023/03/30 12:36:47;;;;;;;;;;;18.90;65.40;;;;;;5971232;23;20585;-79
2023/03/30 12:39:43;;;;;;;;;;;19.00;65.10;;;;;;5935082;23;19909;-79
2023/03/30 12:42:09;;;;;;;;;;;19.10;64.80;;;;;;5947939;23;19972;-79
2023/03/30 12:44:53;;;;;;;;;;;19.10;64.60;;;;;;5937830;23;19984;-77
2023/03/30 12:47:26;;;;;;;;;;;19.10;64.60;;;;;;5965352;23;20334;-78
2023/03/30 12:49:57;;;;;;;;;;;19.20;64.70;;;;;;5963363;23;19913;-79
2023/03/30 12:52:30;;;;;;;;;;;19.30;64.70;;;;;;5963438;23;19917;-78
2023/03/30 12:55:10;;;;;;;;;;;19.30;64.40;;;;;;5980214;23;19917;-79
2023/03/30 12:57:36;;;;;;;;;;;19.40;64.30;;;;;;5948027;23;19913;-78
2023/03/30 13:00:20;;;;;;;;;;;19.50;64.10;;;;;;5960336;23;19969;-79
2023/03/30 13:02:53;;;;;;;;;;;19.50;63.80;;;;;;5962041;23;20271;-79
2023/03/30 13:05:20;;;;;;;;;;;19.40;63.80;;;;;;5955334;23;19913;-79
2023/03/30 13:07:45;;;;;;;;;;;19.40;63.60;;;;;;5951363;23;19959;-78
2023/03/30 13:10:29;;;;;;;;;;;19.30;64.00;;;;;;5959934;23;19909;-76
2023/03/30 13:12:55;;;;;;;;;;;19.50;63.90;;;;;;5948549;23;20026;-78
2023/03/30 13:15:39;;;;;;;;;;;19.60;63.60;;;;;;5967796;23;19913;-78
2023/03/30 13:18:07;;;;;;;;;;;19.70;63.50;;;;;;5962369;23;20029;-79
2023/03/30 13:20:34;;;;;;;;;;;19.90;64.30;;;;;;5963983;23;19976;-77
2023/03/30 13:23:01;;;;;;;;;;;20.00;63.20;;;;;;5962426;23;19999;-77
2023/03/30 13:25:28;;;;;;;;;;;20.00;62.70;;;;;;5963774;23;19920;-77
2023/03/30 13:27:56;;;;;;;;;;;19.90;62.60;;;;;;5944066;23;20285;-77
2023/03/30 13:30:22;;;;;;;;;;;20.00;62.60;;;;;;5965771;23;20763;-78
2023/03/30 13:32:51;;;;;;;;;;;20.00;62.80;;;;;;5983942;23;19909;-77
2023/03/30 13:35:35;;;;;;;;;;;20.10;62.90;;;;;;5944527;23;19922;-77
2023/03/30 13:38:19;;;;;;;;;;;20.30;62.90;;;;;;5958280;23;19913;-77
2023/03/30 13:40:55;;;;;;;;;;;20.40;62.50;;;;;;5983055;23;19925;-75
2023/03/30 13:43:21;;;;;;;;;;;20.60;62.50;;;;;;5986577;23;19933;-76
2023/03/30 13:45:46;;;;;;;;;;;20.80;62.30;;;;;;5943571;23;19913;-77
2023/03/30 13:48:30;;;;;;;;;;;20.90;62.50;;;;;;5984630;23;20390;-78
2023/03/30 13:50:56;;;;;;;;;;;21.00;62.00;;;;;;5943063;23;20569;-78
2023/03/30 13:53:22;;;;;;;;;;;21.20;61.80;;;;;;5986561;23;19913;-77
2023/03/30 13:55:49;;;;;;;;;;;21.30;61.00;;;;;;5963928;23;19999;-77
2023/03/30 13:58:18;;;;;;;;;;;21.30;61.10;;;;;;5962130;23;19916;-79
2023/03/30 14:00:47;;;;;;;;;;;21.40;61.00;;;;;;5953406;23;19917;-78
2023/03/30 14:03:32;;;;;;;;;;;21.40;60.60;;;;;;5963138;23;19921;-77
2023/03/30 14:06:01;;;;;;;;;;;21.40;60.60;;;;;;5953019;23;20300;-77
2023/03/30 14:08:29;;;;;;;;;;;21.40;60.80;;;;;;5979075;23;20515;-77
2023/03/30 14:10:54;;;;;;;;;;;21.50;60.50;;;;;;5963597;23;20000;-77
2023/03/30 14:13:20;;;;;;;;;;;21.60;60.50;;;;;;5964623;23;19945;-78
2023/03/30 14:15:46;;;;;;;;;;;21.60;60.50;;;;;;5962271;23;19916;-76
2023/03/30 14:18:12;;;;;;;;;;;21.70;60.00;;;;;;5961212;23;19905;-78
2023/03/30 14:20:45;;;;;;;;;;;21.60;60.10;;;;;;5985972;23;20048;-77
2023/03/30 14:23:15;;;;;;;;;;;21.60;60.30;;;;;;5960442;23;19917;-77
2023/03/30 14:25:40;;;;;;;;;;;21.50;60.30;;;;;;5985889;23;19913;-77
2023/03/30 14:28:12;;;;;;;;;;;21.40;60.40;;;;;;5962497;23;20601;-78
2023/03/30 14:30:37;;;;;;;;;;;21.30;60.50;;;;;;5955300;23;19920;-77